Black Mesa, Arizona
Current Conditions -  °F | °C
As of 6:35 PM on Sunday 23 Nov 2014 (Local Time) from KBDG Reporting Station
Clear Clear  
Wind Chill: 22°   Ceiling: Unl
Heat Index: 30°   Visibility: 10mi
Dew Point:   Wind: 8mph
Humidity: 36%   Direction: 350°N
Pressure: 30.17"   Gusts: NA
Location:  36.6859°N, 110.268°W
Report Text: KBDG 240135Z AUTO 35007KT 10SM CLR M01/M15 A3017 RMK AO1 T10111147
Loading
Personal Weather Stations






























Interactive Weather Map New forecast layout! Learn more

10-Day Weather Forecast

Advertisements
Track Severe Weather on mobile